Time;durP1;ratioP1;P1;durP2;ratioP2;P2;SDS_P1;SDS_P2;PMS_P1;PMS_P2;Temp;Humidity;BMP_temperature;BMP_pressure;BME280_temperature;BME280_humidity;BME280_pressure;Samples;Min_cycle;Max_cycle;Signal;HPM_P1;HPM_P2
2024/03/01 00:01:40;;;;;;;7.20;5.13;;;;;;;1.22;100.00;102376.72;5036770;28;20133;-71
2024/03/01 00:04:06;;;;;;;4.87;4.07;;;;;;;1.45;100.00;102408.13;5034461;28;20367;-68
2024/03/01 00:06:32;;;;;;;9.97;6.17;;;;;;;1.51;100.00;102407.00;5042518;28;20076;-67
2024/03/01 00:08:57;;;;;;;5.53;4.23;;;;;;;1.75;100.00;102441.88;5047602;28;20152;-67
2024/03/01 00:11:24;;;;;;;6.53;4.90;;;;;;;1.58;100.00;102424.19;5049298;28;20067;-70
2024/03/01 00:13:50;;;;;;;6.47;5.63;;;;;;;1.60;100.00;102421.50;5042393;28;20032;-68
2024/03/01 00:16:15;;;;;;;7.83;4.50;;;;;;;1.71;100.00;102448.16;5046112;28;20271;-67
2024/03/01 00:18:42;;;;;;;7.17;5.70;;;;;;;1.49;100.00;102425.44;5038532;28;20278;-70
2024/03/01 00:21:13;;;;;;;4.93;4.53;;;;;;;1.62;100.00;102456.44;5038985;28;20140;-67
2024/03/01 00:23:39;;;;;;;4.80;4.30;;;;;;;1.57;100.00;102437.38;5037108;28;20284;-69
2024/03/01 00:26:07;;;;;;;4.77;4.00;;;;;;;1.59;100.00;102440.81;5040564;28;20309;-68
2024/03/01 00:28:34;;;;;;;5.90;5.30;;;;;;;1.52;100.00;102430.56;5044760;28;20049;-70
2024/03/01 00:30:59;;;;;;;5.63;5.00;;;;;;;1.64;100.00;102446.72;5043667;28;21024;-69
2024/03/01 00:33:25;;;;;;;6.47;5.40;;;;;;;1.52;100.00;102434.97;5040678;28;20301;-68
2024/03/01 00:35:50;;;;;;;8.60;5.47;;;;;;;1.27;100.00;102400.13;5031197;28;20034;-65
2024/03/01 00:38:16;;;;;;;6.37;4.87;;;;;;;1.44;100.00;102432.63;5037406;28;20049;-67
2024/03/01 00:40:41;;;;;;;5.97;4.83;;;;;;;1.38;100.00;102426.78;5043595;28;20041;-65
2024/03/01 00:43:07;;;;;;;5.37;4.87;;;;;;;1.27;100.00;102414.09;5037601;28;20041;-69
2024/03/01 00:45:32;;;;;;;7.17;5.40;;;;;;;1.47;100.00;102443.03;5041566;28;20044;-68
2024/03/01 00:47:58;;;;;;;5.83;4.80;;;;;;;1.38;100.00;102418.91;5048551;28;20071;-68
2024/03/01 00:50:24;;;;;;;6.67;5.40;;;;;;;1.26;100.00;102406.31;5045371;28;20048;-70
2024/03/01 00:52:50;;;;;;;6.83;4.93;;;;;;;1.30;100.00;102413.13;5039398;28;20045;-66
2024/03/01 00:55:15;;;;;;;5.13;4.63;;;;;;;1.43;100.00;102451.06;5045502;28;20180;-66
2024/03/01 00:57:41;;;;;;;6.97;4.70;;;;;;;1.52;100.00;102451.56;5041401;28;20041;-68
2024/03/01 01:00:08;;;;;;;5.37;4.87;;;;;;;1.42;100.00;102434.47;5041971;28;20045;-68
2024/03/01 01:02:35;;;;;;;10.23;5.60;;;;;;;1.45;100.00;102442.25;5041186;28;20029;-71
2024/03/01 01:05:01;;;;;;;5.30;4.80;;;;;;;1.40;100.00;102431.06;5043862;28;20294;-68
2024/03/01 01:07:27;;;;;;;7.13;6.00;;;;;;;1.44;100.00;102453.63;5041628;28;20358;-69
2024/03/01 01:09:52;;;;;;;6.27;5.00;;;;;;;1.43;100.00;102451.94;5045303;28;20337;-69
2024/03/01 01:12:19;;;;;;;7.67;5.57;;;;;;;1.35;100.00;102442.66;5045150;28;20052;-71
2024/03/01 01:14:45;;;;;;;5.83;5.20;;;;;;;1.36;100.00;102434.72;5044252;28;20041;-69
2024/03/01 01:17:11;;;;;;;5.63;5.10;;;;;;;1.54;100.00;102451.50;5047990;28;20308;-69
2024/03/01 01:19:36;;;;;;;5.80;5.20;;;;;;;1.50;100.00;102456.03;5043872;28;20048;-70
2024/03/01 01:22:02;;;;;;;5.53;4.90;;;;;;;1.22;100.00;102431.81;5044963;28;20295;-65
2024/03/01 01:24:28;;;;;;;5.80;5.20;;;;;;;1.23;100.00;102423.03;5041656;28;20064;-66
2024/03/01 01:26:57;;;;;;;5.47;4.97;;;;;;;1.30;100.00;102440.22;5026254;28;20477;-68
2024/03/01 01:29:23;;;;;;;7.20;4.87;;;;;;;1.28;100.00;102449.09;5043430;28;20358;-68
2024/03/01 01:31:48;;;;;;;5.53;5.00;;;;;;;1.24;100.00;102453.59;5045333;28;20754;-66
2024/03/01 01:34:16;;;;;;;5.23;4.10;;;;;;;1.12;100.00;102443.56;5045646;28;20057;-66
2024/03/01 01:36:42;;;;;;;4.60;4.20;;;;;;;1.12;100.00;102448.81;5045409;28;20677;-66
2024/03/01 01:39:07;;;;;;;5.00;4.50;;;;;;;1.30;100.00;102465.63;5041747;28;20041;-68
2024/03/01 01:41:35;;;;;;;4.33;3.93;;;;;;;1.08;100.00;102423.63;5053229;28;20512;-69
2024/03/01 01:44:01;;;;;;;5.87;4.43;;;;;;;1.34;100.00;102462.81;5044174;28;20079;-67
2024/03/01 01:46:27;;;;;;;3.70;3.30;;;;;;;1.35;100.00;102464.50;5044164;28;20288;-68
2024/03/01 01:48:53;;;;;;;4.50;3.90;;;;;;;1.34;100.00;102452.31;5049712;28;20472;-68
2024/03/01 01:51:20;;;;;;;3.90;3.60;;;;;;;1.43;100.00;102453.69;5043471;28;20374;-67
2024/03/01 01:53:46;;;;;;;5.23;3.70;;;;;;;1.43;100.00;102454.56;5049892;28;20033;-69
2024/03/01 01:56:13;;;;;;;5.03;3.73;;;;;;;1.38;100.00;102463.53;5048990;28;20275;-69
2024/03/01 01:58:41;;;;;;;6.67;5.17;;;;;;;1.34;100.00;102468.06;5046313;28;20283;-67
2024/03/01 02:01:08;;;;;;;6.00;4.03;;;;;;;1.44;100.00;102464.13;5046159;28;20295;-66
2024/03/01 02:03:40;;;;;;;4.73;3.80;;;;;;;1.15;100.00;102425.94;5043731;28;20280;-66
2024/03/01 02:06:06;;;;;;;4.93;4.27;;;;;;;1.19;100.00;102447.69;5045311;28;20322;-69
2024/03/01 02:08:33;;;;;;;5.13;4.63;;;;;;;0.89;100.00;102389.41;5046936;28;20646;-65
2024/03/01 02:10:59;;;;;;;4.70;4.17;;;;;;;1.21;100.00;102451.09;5052596;28;20275;-69
2024/03/01 02:13:25;;;;;;;7.03;4.93;;;;;;;1.11;100.00;102439.25;5044758;28;20271;-69
2024/03/01 02:15:52;;;;;;;5.20;4.67;;;;;;;1.20;100.00;102459.91;5050126;28;20286;-65
2024/03/01 02:18:18;;;;;;;6.77;5.03;;;;;;;1.03;100.00;102436.94;5048375;28;20131;-66
2024/03/01 02:20:57;;;;;;;8.23;4.37;;;;;;;1.20;100.00;102462.53;5044544;28;20390;-67
2024/03/01 02:23:22;;;;;;;5.95;5.38;;;;;;;0.99;100.00;102419.59;5022035;28;20060;-68
2024/03/01 02:25:49;;;;;;;5.53;4.80;;;;;;;1.04;100.00;102446.50;5045734;28;20492;-68
2024/03/01 02:28:19;;;;;;;6.17;5.57;;;;;;;1.13;100.00;102461.03;5045205;28;20053;-70
2024/03/01 02:30:45;;;;;;;4.77;4.20;;;;;;;1.02;100.00;102431.75;5048120;28;20794;-68
2024/03/01 02:33:11;;;;;;;5.97;4.97;;;;;;;1.11;100.00;102444.50;5043672;28;20279;-68
2024/03/01 02:35:37;;;;;;;5.57;5.07;;;;;;;0.86;100.00;102382.50;5029296;28;20037;-67
2024/03/01 02:38:04;;;;;;;5.87;5.13;;;;;;;1.30;100.00;102453.34;5045491;28;20271;-69
2024/03/01 02:40:32;;;;;;;6.33;5.70;;;;;;;1.24;100.00;102435.22;5044643;28;20296;-69
2024/03/01 02:42:58;;;;;;;6.13;5.30;;;;;;;1.31;100.00;102446.34;5044551;28;20275;-67
2024/03/01 02:45:23;;;;;;;5.43;4.93;;;;;;;1.23;100.00;102444.03;5042653;28;20033;-65
2024/03/01 02:47:49;;;;;;;7.60;5.83;;;;;;;1.18;100.00;102446.84;5038114;28;20140;-70
2024/03/01 02:50:15;;;;;;;7.40;5.93;;;;;;;1.07;100.00;102443.75;5041495;28;20080;-67
2024/03/01 02:52:40;;;;;;;6.80;5.67;;;;;;;1.03;100.00;102441.31;5037383;28;20041;-67
2024/03/01 02:55:06;;;;;;;6.37;5.20;;;;;;;1.17;100.00;102455.63;5043167;28;20037;-70
2024/03/01 02:57:33;;;;;;;6.47;5.73;;;;;;;1.24;100.00;102456.22;5040672;28;20066;-67
2024/03/01 02:59:59;;;;;;;6.80;6.10;;;;;;;1.11;100.00;102441.88;5038365;28;20362;-65
2024/03/01 03:02:26;;;;;;;7.47;6.13;;;;;;;1.09;100.00;102441.06;5042532;28;20284;-67
2024/03/01 03:04:53;;;;;;;8.63;6.97;;;;;;;1.09;100.00;102446.31;5047111;28;20778;-70
2024/03/01 03:07:20;;;;;;;8.63;6.93;;;;;;;1.06;100.00;102462.19;5041729;28;20294;-68
2024/03/01 03:09:46;;;;;;;8.07;6.73;;;;;;;1.00;100.00;102444.06;5045219;28;20294;-66
2024/03/01 03:12:11;;;;;;;8.50;6.43;;;;;;;0.83;100.00;102432.44;5045782;28;20287;-69
2024/03/01 03:14:37;;;;;;;7.67;6.90;;;;;;;0.78;100.00;102444.03;5044760;28;20044;-66
2024/03/01 03:17:07;;;;;;;8.83;7.03;;;;;;;0.65;100.00;102425.31;5043172;28;20049;-70
2024/03/01 03:19:36;;;;;;;8.20;6.93;;;;;;;0.77;100.00;102442.34;5042809;28;20041;-66
2024/03/01 03:22:08;;;;;;;7.83;6.20;;;;;;;0.93;100.00;102461.81;5042146;28;20311;-69
2024/03/01 03:24:35;;;;;;;8.13;6.47;;;;;;;0.95;100.00;102448.66;5042704;28;20793;-67
2024/03/01 03:27:01;;;;;;;7.53;6.27;;;;;;;1.02;100.00;102450.97;5042265;28;20928;-68
2024/03/01 03:29:26;;;;;;;7.40;6.27;;;;;;;0.98;100.00;102453.78;5041513;28;20311;-68
2024/03/01 03:31:52;;;;;;;8.87;6.83;;;;;;;0.98;100.00;102448.53;5036070;28;20276;-69
2024/03/01 03:34:18;;;;;;;9.23;7.33;;;;;;;0.93;100.00;102457.44;5037322;28;20045;-68
2024/03/01 03:36:43;;;;;;;7.13;6.10;;;;;;;0.71;100.00;102446.06;5027706;28;20072;-67
2024/03/01 03:39:09;;;;;;;8.43;5.80;;;;;;;0.67;100.00;102448.84;5036274;28;20045;-67
2024/03/01 03:41:35;;;;;;;6.93;6.23;;;;;;;0.56;100.00;102462.34;5041081;28;20042;-66
2024/03/01 03:44:01;;;;;;;8.70;7.43;;;;;;;0.42;100.00;102438.41;5046306;28;20036;-68
2024/03/01 03:46:28;;;;;;;7.23;6.47;;;;;;;0.52;100.00;102439.78;5036949;28;20052;-68
2024/03/01 03:48:53;;;;;;;7.30;6.60;;;;;;;0.75;100.00;102476.47;5018240;28;20779;-66
2024/03/01 03:51:24;;;;;;;9.50;5.83;;;;;;;0.59;100.00;102449.16;5045050;28;20271;-69
2024/03/01 03:53:50;;;;;;;6.93;6.07;;;;;;;0.55;100.00;102434.41;5032670;28;20412;-66
2024/03/01 03:56:15;;;;;;;9.97;6.90;;;;;;;0.90;100.00;102477.69;5033899;28;20322;-68
2024/03/01 03:58:40;;;;;;;9.37;7.47;;;;;;;0.97;100.00;102478.31;5036291;28;20083;-66
2024/03/01 04:01:09;;;;;;;8.27;7.40;;;;;;;0.92;100.00;102468.84;5044118;28;20045;-68
2024/03/01 04:03:34;;;;;;;8.82;7.18;;;;;;;1.03;100.00;102478.06;5044290;28;20068;-68
2024/03/01 04:06:00;;;;;;;11.13;7.03;;;;;;;1.08;100.00;102481.34;5048926;28;20061;-68
2024/03/01 04:08:26;;;;;;;7.67;6.30;;;;;;;1.05;100.00;102486.72;5047113;28;20407;-69
2024/03/01 04:10:51;;;;;;;10.67;8.23;;;;;;;1.02;100.00;102489.47;5038949;28;20025;-70
2024/03/01 04:13:17;;;;;;;9.87;8.17;;;;;;;0.74;100.00;102443.31;5045663;28;20095;-70
2024/03/01 04:15:43;;;;;;;10.70;7.93;;;;;;;0.16;100.00;102340.66;5046605;28;20083;-65
2024/03/01 04:18:10;;;;;;;13.10;9.03;;;;;;;0.74;100.00;102440.69;5037637;28;20037;-69
2024/03/01 04:20:36;;;;;;;10.43;8.27;;;;;;;0.99;100.00;102492.22;5037249;28;20303;-67
2024/03/01 04:23:04;;;;;;;11.63;8.17;;;;;;;0.77;100.00;102472.03;5034718;28;20295;-71
2024/03/01 04:25:34;;;;;;;10.07;7.97;;;;;;;0.84;100.00;102489.25;5040912;28;20041;-69
2024/03/01 04:28:00;;;;;;;12.90;9.50;;;;;;;0.69;100.00;102468.84;5046664;28;20300;-69
2024/03/01 04:30:26;;;;;;;11.33;9.13;;;;;;;0.86;100.00;102492.66;5039621;28;20654;-72
2024/03/01 04:32:52;;;;;;;11.73;9.17;;;;;;;0.64;100.00;102464.69;5041619;28;20025;-69
2024/03/01 04:35:17;;;;;;;12.03;10.73;;;;;;;0.69;100.00;102494.22;5048884;28;20275;-70
2024/03/01 04:37:44;;;;;;;13.27;9.27;;;;;;;0.60;100.00;102498.06;5046338;28;20118;-69
2024/03/01 04:40:11;;;;;;;12.47;9.67;;;;;;;0.55;100.00;102476.34;5045804;28;20033;-70
2024/03/01 04:42:41;;;;;;;10.00;8.53;;;;;;;0.76;100.00;102507.03;5043490;28;20288;-70
2024/03/01 04:45:08;;;;;;;11.00;9.03;;;;;;;0.74;100.00;102503.63;5047907;28;20310;-70
2024/03/01 04:47:33;;;;;;;11.60;9.23;;;;;;;0.77;100.00;102487.78;5047314;28;20290;-69
2024/03/01 04:49:59;;;;;;;11.90;9.00;;;;;;;0.95;100.00;102516.84;5044111;28;20700;-68
2024/03/01 04:52:26;;;;;;;11.20;10.10;;;;;;;0.92;100.00;102521.31;5046992;28;20037;-68
2024/03/01 04:54:52;;;;;;;15.53;10.80;;;;;;;0.81;100.00;102514.72;5040635;28;20452;-66
2024/03/01 04:57:18;;;;;;;12.97;10.17;;;;;;;0.66;100.00;102510.94;5046835;28;20448;-70
2024/03/01 04:59:44;;;;;;;13.73;9.80;;;;;;;0.75;100.00;102509.72;5034655;28;20283;-67
2024/03/01 05:02:09;;;;;;;12.27;10.03;;;;;;;0.73;100.00;102517.66;5044704;28;20572;-73
2024/03/01 05:04:35;;;;;;;12.90;9.43;;;;;;;0.57;100.00;102506.00;5045045;28;20478;-69
2024/03/01 05:07:01;;;;;;;12.93;10.17;;;;;;;0.67;100.00;102525.75;5043011;28;20096;-71
2024/03/01 05:09:27;;;;;;;14.17;10.97;;;;;;;0.59;100.00;102512.06;5018595;28;20084;-68
2024/03/01 05:11:53;;;;;;;17.10;12.17;;;;;;;0.71;100.00;102534.34;5040178;28;20320;-68
2024/03/01 05:14:21;;;;;;;16.80;12.70;;;;;;;0.63;100.00;102524.16;5032226;28;20091;-71
2024/03/01 05:16:47;;;;;;;14.13;11.60;;;;;;;0.67;100.00;102527.50;5036027;28;20323;-68
2024/03/01 05:19:13;;;;;;;13.43;10.97;;;;;;;0.11;100.00;102436.91;5035031;28;20283;-69
2024/03/01 05:21:38;;;;;;;11.90;10.37;;;;;;;0.57;100.00;102498.97;5034916;28;20359;-70
2024/03/01 05:24:05;;;;;;;12.83;10.53;;;;;;;0.59;100.00;102499.81;5043874;28;20041;-68
2024/03/01 05:26:32;;;;;;;13.77;10.63;;;;;;;0.76;100.00;102543.75;5044281;28;20450;-71
2024/03/01 05:28:59;;;;;;;13.13;10.43;;;;;;;0.58;100.00;102520.84;5039284;28;20296;-69
2024/03/01 05:31:28;;;;;;;14.73;10.83;;;;;;;0.64;100.00;102531.09;5044064;28;20290;-69
2024/03/01 05:33:54;;;;;;;15.47;11.00;;;;;;;0.56;100.00;102531.34;5043569;28;20287;-69
2024/03/01 05:36:19;;;;;;;15.70;10.93;;;;;;;0.57;100.00;102529.59;5046552;28;20290;-69
2024/03/01 05:38:45;;;;;;;14.83;10.60;;;;;;;0.61;100.00;102529.47;5046566;28;20147;-68
2024/03/01 05:41:10;;;;;;;14.13;11.13;;;;;;;0.44;100.00;102502.13;5046989;28;20041;-66
2024/03/01 05:43:36;;;;;;;13.13;9.83;;;;;;;0.67;100.00;102536.22;5040632;28;20057;-69
2024/03/01 05:46:14;;;;;;;12.90;9.37;;;;;;;0.80;100.00;102540.09;5036610;28;20087;-71
2024/03/01 05:48:42;;;;;;;15.52;10.18;;;;;;;0.90;100.00;102546.75;5037624;28;20048;-68
2024/03/01 05:51:11;;;;;;;13.00;9.55;;;;;;;0.70;100.00;102517.75;5040965;28;20116;-68
2024/03/01 05:53:36;;;;;;;14.32;11.57;;;;;;;0.57;100.00;102509.47;5034877;28;20072;-71
2024/03/01 05:56:02;;;;;;;16.40;11.53;;;;;;;0.43;100.00;102489.94;5037477;28;20065;-74
2024/03/01 05:58:28;;;;;;;16.17;11.40;;;;;;;0.69;100.00;102538.81;5035801;28;20037;-71
2024/03/01 06:00:54;;;;;;;16.43;11.33;;;;;;;0.57;100.00;102533.06;5034627;28;20641;-75
2024/03/01 06:03:21;;;;;;;15.23;10.83;;;;;;;0.39;100.00;102522.41;5032899;28;20044;-73
2024/03/01 06:05:47;;;;;;;14.97;11.07;;;;;;;0.25;100.00;102499.28;5039833;28;20291;-71
2024/03/01 06:08:13;;;;;;;12.53;10.20;;;;;;;0.14;100.00;102491.81;5035357;28;20743;-71
2024/03/01 06:10:39;;;;;;;11.90;10.00;;;;;;;0.36;100.00;102525.13;5041136;28;20119;-72
2024/03/01 06:13:04;;;;;;;11.47;9.53;;;;;;;0.50;100.00;102541.22;5043493;28;20041;-68
2024/03/01 06:15:30;;;;;;;11.43;9.43;;;;;;;0.57;100.00;102542.69;5034478;28;20052;-75
2024/03/01 06:17:55;;;;;;;15.80;11.10;;;;;;;0.54;100.00;102538.44;5036805;28;20071;-71
2024/03/01 06:20:21;;;;;;;16.53;12.10;;;;;;;0.40;100.00;102516.25;5034047;28;20032;-68
2024/03/01 06:22:46;;;;;;;21.10;14.57;;;;;;;0.65;100.00;102545.06;5033422;28;20046;-67
2024/03/01 06:25:13;;;;;;;18.07;12.20;;;;;;;0.61;100.00;102525.97;5033951;28;20087;-67
2024/03/01 06:27:40;;;;;;;20.57;13.03;;;;;;;0.57;100.00;102503.38;5030378;28;20057;-67
2024/03/01 06:30:06;;;;;;;26.40;13.83;;;;;;;0.83;100.00;102534.75;5034847;28;20296;-69
2024/03/01 06:32:32;;;;;;;25.07;15.40;;;;;;;0.86;100.00;102531.16;5032477;28;20280;-68
2024/03/01 06:34:58;;;;;;;13.87;10.40;;;;;;;0.82;100.00;102532.19;5038972;28;20275;-67
2024/03/01 06:37:24;;;;;;;13.60;10.67;;;;;;;0.52;100.00;102521.91;5036101;28;20041;-67
2024/03/01 06:39:49;;;;;;;12.07;8.70;;;;;;;0.55;100.00;102523.56;5034137;28;20033;-67
2024/03/01 06:42:15;;;;;;;11.70;8.90;;;;;;;0.35;100.00;102507.69;5035929;28;20041;-68
2024/03/01 06:44:40;;;;;;;13.70;10.93;;;;;;;0.48;100.00;102529.94;5038323;28;20033;-67
2024/03/01 06:47:06;;;;;;;16.70;12.00;;;;;;;0.33;100.00;102504.28;5037750;28;20033;-70
2024/03/01 06:49:32;;;;;;;11.07;9.10;;;;;;;0.52;100.00;102534.16;5037432;28;20041;-70
2024/03/01 06:52:03;;;;;;;12.17;9.13;;;;;;;0.50;100.00;102535.97;5033602;28;20136;-68
2024/03/01 06:54:29;;;;;;;16.00;10.63;;;;;;;0.62;100.00;102546.03;5046808;28;20064;-66
2024/03/01 06:56:54;;;;;;;19.10;11.27;;;;;;;0.65;100.00;102540.69;5045197;28;20272;-67
2024/03/01 06:59:20;;;;;;;12.33;9.53;;;;;;;0.73;100.00;102546.50;5036783;28;20499;-70
2024/03/01 07:01:46;;;;;;;13.73;9.47;;;;;;;0.79;100.00;102551.50;5040342;28;20029;-72
2024/03/01 07:04:11;;;;;;;13.53;11.37;;;;;;;0.69;100.00;102529.16;5033565;28;20099;-68
2024/03/01 07:06:37;;;;;;;20.33;14.73;;;;;;;0.85;100.00;102550.41;5035929;28;20053;-71
2024/03/01 07:09:04;;;;;;;26.87;15.73;;;;;;;0.95;100.00;102564.94;5035502;28;20044;-70
2024/03/01 07:11:30;;;;;;;21.77;13.17;;;;;;;0.86;100.00;102566.09;5032579;28;20404;-69
2024/03/01 07:13:56;;;;;;;13.80;10.03;;;;;;;0.73;100.00;102561.38;5032563;28;20322;-71
2024/03/01 07:16:23;;;;;;;10.07;8.93;;;;;;;0.54;100.00;102571.66;5034027;28;20318;-70
2024/03/01 07:18:48;;;;;;;11.70;9.60;;;;;;;0.51;100.00;102579.63;5034521;28;20048;-70
2024/03/01 07:21:14;;;;;;;10.30;9.20;;;;;;;0.38;100.00;102562.63;5047550;28;20291;-68
2024/03/01 07:23:39;;;;;;;9.33;8.27;;;;;;;0.53;100.00;102567.31;5039039;28;20140;-67
2024/03/01 07:26:05;;;;;;;12.27;10.47;;;;;;;0.45;100.00;102543.16;5018180;28;20494;-71
2024/03/01 07:28:34;;;;;;;10.70;9.10;;;;;;;0.51;100.00;102558.66;5038530;28;20437;-73
2024/03/01 07:31:00;;;;;;;15.47;9.40;;;;;;;0.59;100.00;102565.38;5018451;28;20041;-72
2024/03/01 07:33:26;;;;;;;12.83;10.20;;;;;;;0.60;100.00;102563.59;5032838;28;20609;-68
2024/03/01 07:35:52;;;;;;;14.13;11.80;;;;;;;0.24;100.00;102500.19;5048122;28;20040;-68
2024/03/01 07:38:17;;;;;;;15.50;11.20;;;;;;;0.63;100.00;102558.25;5050906;28;20291;-68
2024/03/01 07:40:47;;;;;;;11.93;10.33;;;;;;;0.47;100.00;102536.09;5045154;28;20045;-70
2024/03/01 07:43:12;;;;;;;14.20;10.73;;;;;;;0.49;100.00;102537.75;5038530;28;20394;-69
2024/03/01 07:45:38;;;;;;;13.53;10.27;;;;;;;0.62;100.00;102543.41;5037696;28;20465;-69
2024/03/01 07:48:05;;;;;;;13.47;9.43;;;;;;;0.74;100.00;102556.06;5039681;28;20037;-71
2024/03/01 07:50:31;;;;;;;11.63;9.30;;;;;;;0.66;100.00;102537.16;5036834;28;20353;-71
2024/03/01 07:52:58;;;;;;;14.83;10.93;;;;;;;0.74;100.00;102553.44;5016055;28;20316;-70
2024/03/01 07:55:24;;;;;;;12.83;9.87;;;;;;;0.73;100.00;102541.25;5035864;28;20041;-70
2024/03/01 07:57:49;;;;;;;12.83;9.13;;;;;;;1.01;100.00;102577.81;5033544;28;20272;-70
2024/03/01 08:00:16;;;;;;;13.63;9.03;;;;;;;0.64;100.00;102525.00;5016476;28;20037;-69
2024/03/01 08:02:41;;;;;;;12.50;9.27;;;;;;;0.81;100.00;102557.56;5033737;28;20041;-69
2024/03/01 08:05:09;;;;;;;11.60;8.87;;;;;;;0.81;100.00;102573.28;5039590;28;20279;-72
2024/03/01 08:07:34;;;;;;;19.40;10.87;;;;;;;0.76;100.00;102569.97;5042635;28;20111;-69
2024/03/01 08:10:00;;;;;;;10.77;8.97;;;;;;;0.71;100.00;102569.31;5049882;28;20282;-69
2024/03/01 08:12:27;;;;;;;11.40;8.90;;;;;;;0.69;100.00;102562.41;5034386;28;20033;-72
2024/03/01 08:14:53;;;;;;;11.77;9.30;;;;;;;0.81;100.00;102578.53;5043965;28;20045;-71
2024/03/01 08:17:19;;;;;;;11.50;9.27;;;;;;;0.77;100.00;102570.84;5041326;28;20392;-68
2024/03/01 08:19:50;;;;;;;13.10;9.77;;;;;;;0.58;100.00;102540.06;5038865;28;20370;-72
2024/03/01 08:22:19;;;;;;;12.40;9.10;;;;;;;0.82;100.00;102585.50;5042195;28;20083;-69
2024/03/01 08:24:46;;;;;;;11.37;9.73;;;;;;;0.59;100.00;102565.38;5041396;28;20291;-71
2024/03/01 08:27:23;;;;;;;10.30;9.20;;;;;;;0.60;100.00;102555.72;5035003;28;20303;-70
2024/03/01 08:29:49;;;;;;;12.17;9.03;;;;;;;0.73;100.00;102562.22;5012139;28;20289;-71
2024/03/01 08:32:23;;;;;;;10.47;8.70;;;;;;;1.03;100.00;102593.50;5034577;28;20337;-70
2024/03/01 08:34:52;;;;;;;9.67;8.30;;;;;;;1.00;100.00;102594.47;5035508;28;20130;-70
2024/03/01 08:37:58;;;;;;;9.73;8.70;;;;;;;0.96;100.00;102576.28;5035709;28;20374;-74
2024/03/01 08:40:33;;;;;;;10.77;9.60;;;;;;;0.92;100.00;102583.41;5031270;28;20037;-71
2024/03/01 08:42:59;;;;;;;12.80;9.60;;;;;;;0.81;100.00;102578.53;5035239;28;20315;-69
2024/03/01 08:45:44;;;;;;;12.40;9.57;;;;;;;0.95;100.00;102600.81;5019040;28;20323;-70
2024/03/01 08:48:18;;;;;;;12.43;8.60;;;;;;;0.81;100.00;102583.78;5034118;28;20095;-69
2024/03/01 08:50:48;;;;;;;10.20;8.50;;;;;;;0.85;100.00;102601.13;5031887;28;20271;-71
2024/03/01 08:53:31;;;;;;;12.63;8.43;;;;;;;0.96;100.00;102599.91;5033639;28;20288;-70
2024/03/01 08:55:57;;;;;;;8.37;6.80;;;;;;;0.55;100.00;102528.78;5034937;28;20316;-71
2024/03/01 08:58:25;;;;;;;7.87;6.97;;;;;;;0.98;100.00;102595.44;5040896;28;20331;-70
2024/03/01 09:00:54;;;;;;;7.93;7.05;;;;;;;1.08;100.00;102596.81;5039331;28;20979;-71
2024/03/01 09:03:25;;;;;;;10.50;7.63;;;;;;;0.98;100.00;102583.19;5052536;28;20048;-70
2024/03/01 09:05:56;;;;;;;9.47;6.67;;;;;;;0.90;100.00;102578.22;5042801;28;20041;-68
2024/03/01 09:08:29;;;;;;;8.17;6.97;;;;;;;0.92;100.00;102581.66;5040887;28;20361;-69
2024/03/01 09:10:57;;;;;;;7.67;5.63;;;;;;;1.01;100.00;102596.19;5035203;28;20292;-69
2024/03/01 09:13:25;;;;;;;9.53;8.13;;;;;;;1.04;100.00;102605.72;5041336;28;20286;-70
2024/03/01 09:15:51;;;;;;;11.77;8.10;;;;;;;1.03;100.00;102598.75;5034852;28;20315;-70
2024/03/01 09:18:41;;;;;;;8.37;7.17;;;;;;;1.18;100.00;102608.69;5031504;28;20080;-69
2024/03/01 09:21:36;;;;;;;13.90;9.30;;;;;;;1.15;100.00;102608.78;5019015;28;20296;-69
2024/03/01 09:24:04;;;;;;;12.20;7.37;;;;;;;1.11;100.00;102594.06;5032077;28;20283;-69
2024/03/01 09:26:34;;;;;;;7.65;6.90;;;;;;;1.12;100.00;102577.41;5032603;28;20285;-68
2024/03/01 09:29:04;;;;;;;5.63;5.13;;;;;;;1.22;97.54;102605.88;5038196;28;20045;-70
2024/03/01 09:31:31;;;;;;;6.10;5.47;;;;;;;1.06;98.48;102588.13;5037863;28;20317;-68
2024/03/01 09:34:00;;;;;;;5.67;5.17;;;;;;;0.08;98.13;102423.06;5037195;28;20659;-70
2024/03/01 09:36:26;;;;;;;5.88;5.15;;;;;;;1.06;98.03;102594.25;5039339;28;20840;-70
2024/03/01 09:38:54;;;;;;;5.37;4.87;;;;;;;0.97;97.67;102567.50;5034631;28;20077;-69
2024/03/01 09:41:39;;;;;;;7.83;4.97;;;;;;;0.71;97.81;102509.00;5034121;28;20041;-70
2024/03/01 09:44:44;;;;;;;10.00;6.27;;;;;;;1.47;97.21;102610.22;5038056;28;20679;-69
2024/03/01 09:47:24;;;;;;;6.70;5.47;;;;;;;1.52;96.66;102610.88;5036514;28;20268;-71
2024/03/01 09:50:07;;;;;;;7.23;5.83;;;;;;;1.41;96.84;102595.53;5030566;28;20275;-68
2024/03/01 09:52:33;;;;;;;9.93;5.97;;;;;;;1.18;96.26;102545.72;5035229;28;20279;-70
2024/03/01 09:54:59;;;;;;;29.53;6.43;;;;;;;1.65;95.72;102613.88;5036746;28;20275;-72
2024/03/01 09:57:34;;;;;;;8.07;5.27;;;;;;;1.77;95.44;102613.41;5007864;28;20037;-70
2024/03/01 10:00:22;;;;;;;36.43;18.23;;;;;;;1.67;95.98;102585.78;5037169;28;20073;-70
2024/03/01 10:03:11;;;;;;;5.60;5.05;;;;;;;1.68;96.27;102576.97;5033258;28;20379;-67
2024/03/01 10:06:13;;;;;;;6.88;4.90;;;;;;;1.98;95.94;102617.78;5035244;28;20037;-66
2024/03/01 10:09:00;;;;;;;6.67;4.53;;;;;;;1.95;95.08;102617.91;5032473;28;20100;-69
2024/03/01 10:11:49;;;;;;;6.97;4.33;;;;;;;1.78;95.01;102591.47;5045753;28;20299;-71
2024/03/01 10:14:31;;;;;;;5.07;4.67;;;;;;;1.69;95.63;102605.81;5040565;28;20322;-69
2024/03/01 10:17:08;;;;;;;9.17;5.80;;;;;;;1.57;97.76;102602.81;5046040;28;20286;-66
2024/03/01 10:19:57;;;;;;;6.13;5.53;;;;;;;1.31;97.90;102573.19;5032755;28;20295;-68
2024/03/01 10:22:45;;;;;;;5.77;5.27;;;;;;;1.46;98.48;102613.75;5035095;28;20303;-69
2024/03/01 10:25:43;;;;;;;5.10;4.60;;;;;;;1.50;99.16;102604.84;5039728;28;20283;-67
2024/03/01 10:28:21;;;;;;;5.82;5.32;;;;;;;1.45;99.54;102612.91;5037254;28;20633;-64
2024/03/01 10:31:13;;;;;;;5.72;5.13;;;;;;;1.51;100.00;102612.66;5037320;28;20140;-67
2024/03/01 10:33:41;;;;;;;7.73;5.93;;;;;;;1.58;100.00;102620.28;5035906;28;20040;-65
2024/03/01 10:36:15;;;;;;;5.68;5.18;;;;;;;1.58;99.96;102607.16;5038110;28;20343;-65
2024/03/01 10:38:47;;;;;;;6.37;5.80;;;;;;;1.65;100.00;102608.63;5036609;28;20486;-65
2024/03/01 10:41:40;;;;;;;7.73;6.17;;;;;;;1.72;100.00;102594.31;5037346;28;20339;-68
2024/03/01 10:44:14;;;;;;;12.77;8.30;;;;;;;1.78;99.07;102609.88;5035346;28;20269;-68
2024/03/01 10:47:13;;;;;;;12.47;7.10;;;;;;;1.64;99.93;102613.03;5035832;28;20375;-68
2024/03/01 10:49:56;;;;;;;7.82;6.07;;;;;;;1.58;100.00;102591.41;5031589;28;20287;-69
2024/03/01 10:52:26;;;;;;;7.90;6.20;;;;;;;1.64;100.00;102599.91;5040982;28;20401;-69
2024/03/01 10:54:56;;;;;;;8.90;5.80;;;;;;;1.61;100.00;102592.13;5022744;28;20363;-72
2024/03/01 10:57:22;;;;;;;6.43;5.83;;;;;;;1.64;100.00;102578.88;5039238;28;20847;-67
2024/03/01 10:59:53;;;;;;;6.53;5.80;;;;;;;1.72;100.00;102594.31;5047338;28;20291;-67
2024/03/01 11:02:40;;;;;;;14.37;7.67;;;;;;;1.45;100.00;102576.16;5025032;28;20295;-68
2024/03/01 11:05:34;;;;;;;13.23;9.03;;;;;;;1.50;100.00;102584.69;5018079;28;20295;-70
2024/03/01 11:08:20;;;;;;;11.23;7.53;;;;;;;1.34;100.00;102567.81;5043837;28;20426;-70
2024/03/01 11:11:00;;;;;;;8.23;6.20;;;;;;;1.44;100.00;102592.78;5018480;28;20284;-70
2024/03/01 11:13:28;;;;;;;6.70;6.10;;;;;;;1.23;100.00;102570.84;5038327;28;20284;-71
2024/03/01 11:15:56;;;;;;;8.48;7.68;;;;;;;1.26;100.00;102567.25;5040790;28;20364;-72
2024/03/01 11:18:30;;;;;;;8.68;7.78;;;;;;;1.29;100.00;102564.50;5035954;28;20033;-70
2024/03/01 11:21:02;;;;;;;7.67;6.43;;;;;;;1.45;100.00;102591.91;5046845;28;20052;-72
2024/03/01 11:23:39;;;;;;;7.63;6.43;;;;;;;1.53;100.00;102597.69;5039260;28;20295;-71
2024/03/01 11:26:21;;;;;;;6.03;5.53;;;;;;;1.47;100.00;102576.94;5041789;28;21524;-72
2024/03/01 11:28:56;;;;;;;5.57;4.57;;;;;;;1.29;100.00;102582.88;5037463;28;20376;-71
2024/03/01 11:31:28;;;;;;;5.33;4.70;;;;;;;1.28;100.00;102609.19;5039211;28;20345;-70